Terminal Aerodrome Forecast
Issued by NWS Mt. Holly, NJ

Home | Current Version | Previous Version | Text Only | Print | Product List | Glossary On
Versions: 1 2 3 4 5 6 7 8 9 10 11 12 13 14 15 16 17 18 19
964
FTUS41 KPHI 251133
TAFTTN
TAF
KTTN 251133Z 2512/2612 16005KT P6SM SCT025 BKN050
      TEMPO 2512/2514 6SM BR BKN025
     FM251400 17010KT P6SM BKN025
     FM251600 19012G20KT P6SM BKN035
      TEMPO 2521/2523 27018G35KT 2SM TSRA OVC020CB
     FM252300 30010G18KT P6SM VCSH OVC050
     FM260100 30012G22KT P6SM SCT040=

USA.gov is the U.S. government's official web portal to all federal, state and local government web resources and services.